sensor_id;sensor_type;location;lat;lon;timestamp;P1;durP1;ratioP1;P2;durP2;ratioP2
5412;SDS011;2729;50.056;8.678;2022-07-03T00:01:54;3.07;;;1.50;;
5412;SDS011;2729;50.056;8.678;2022-07-03T00:04:20;1.90;;;1.70;;
5412;SDS011;2729;50.056;8.678;2022-07-03T00:06:46;2.73;;;1.50;;
5412;SDS011;2729;50.056;8.678;2022-07-03T00:09:13;1.70;;;1.60;;
5412;SDS011;2729;50.056;8.678;2022-07-03T00:11:39;2.57;;;1.90;;
5412;SDS011;2729;50.056;8.678;2022-07-03T00:14:05;2.07;;;1.97;;
5412;SDS011;2729;50.056;8.678;2022-07-03T00:16:31;2.30;;;1.70;;
5412;SDS011;2729;50.056;8.678;2022-07-03T00:18:57;1.90;;;1.80;;
5412;SDS011;2729;50.056;8.678;2022-07-03T00:21:31;1.60;;;1.50;;
5412;SDS011;2729;50.056;8.678;2022-07-03T00:24:05;1.40;;;1.30;;
5412;SDS011;2729;50.056;8.678;2022-07-03T00:26:34;1.80;;;1.70;;
5412;SDS011;2729;50.056;8.678;2022-07-03T00:29:04;2.00;;;1.80;;
5412;SDS011;2729;50.056;8.678;2022-07-03T00:31:32;1.47;;;1.47;;
5412;SDS011;2729;50.056;8.678;2022-07-03T00:33:59;1.93;;;1.77;;
5412;SDS011;2729;50.056;8.678;2022-07-03T00:36:29;3.63;;;1.40;;
5412;SDS011;2729;50.056;8.678;2022-07-03T00:38:58;4.00;;;1.57;;
5412;SDS011;2729;50.056;8.678;2022-07-03T00:41:25;6.00;;;1.70;;
5412;SDS011;2729;50.056;8.678;2022-07-03T00:43:56;1.80;;;1.70;;
5412;SDS011;2729;50.056;8.678;2022-07-03T00:46:23;1.90;;;1.80;;
5412;SDS011;2729;50.056;8.678;2022-07-03T00:48:52;2.37;;;1.70;;
5412;SDS011;2729;50.056;8.678;2022-07-03T00:51:23;1.97;;;1.87;;
5412;SDS011;2729;50.056;8.678;2022-07-03T00:53:54;2.10;;;1.57;;
5412;SDS011;2729;50.056;8.678;2022-07-03T00:56:23;2.20;;;2.00;;
5412;SDS011;2729;50.056;8.678;2022-07-03T00:58:55;2.90;;;2.10;;
5412;SDS011;2729;50.056;8.678;2022-07-03T01:01:24;1.60;;;1.50;;
5412;SDS011;2729;50.056;8.678;2022-07-03T01:04:04;1.80;;;1.70;;
5412;SDS011;2729;50.056;8.678;2022-07-03T01:07:00;1.67;;;1.57;;
5412;SDS011;2729;50.056;8.678;2022-07-03T01:09:35;2.60;;;1.77;;
5412;SDS011;2729;50.056;8.678;2022-07-03T01:12:11;1.63;;;1.53;;
5412;SDS011;2729;50.056;8.678;2022-07-03T01:17:38;2.57;;;1.63;;
5412;SDS011;2729;50.056;8.678;2022-07-03T01:20:05;1.60;;;1.50;;
5412;SDS011;2729;50.056;8.678;2022-07-03T01:22:36;1.80;;;1.70;;
5412;SDS011;2729;50.056;8.678;2022-07-03T01:25:12;1.80;;;1.70;;
5412;SDS011;2729;50.056;8.678;2022-07-03T01:27:56;1.90;;;1.80;;
5412;SDS011;2729;50.056;8.678;2022-07-03T01:30:38;1.73;;;1.63;;
5412;SDS011;2729;50.056;8.678;2022-07-03T01:33:07;2.70;;;1.67;;
5412;SDS011;2729;50.056;8.678;2022-07-03T01:35:39;1.67;;;1.57;;
5412;SDS011;2729;50.056;8.678;2022-07-03T01:38:07;2.17;;;1.97;;
5412;SDS011;2729;50.056;8.678;2022-07-03T01:40:37;1.83;;;1.73;;
5412;SDS011;2729;50.056;8.678;2022-07-03T01:43:11;1.93;;;1.83;;
5412;SDS011;2729;50.056;8.678;2022-07-03T01:48:12;2.10;;;2.00;;
5412;SDS011;2729;50.056;8.678;2022-07-03T01:50:40;2.00;;;1.90;;
5412;SDS011;2729;50.056;8.678;2022-07-03T01:53:08;2.30;;;2.10;;
5412;SDS011;2729;50.056;8.678;2022-07-03T01:55:37;1.63;;;1.57;;
5412;SDS011;2729;50.056;8.678;2022-07-03T01:58:04;2.13;;;2.03;;
5412;SDS011;2729;50.056;8.678;2022-07-03T02:00:30;1.73;;;1.63;;
5412;SDS011;2729;50.056;8.678;2022-07-03T02:03:03;2.27;;;2.07;;
5412;SDS011;2729;50.056;8.678;2022-07-03T02:05:32;1.57;;;1.50;;
5412;SDS011;2729;50.056;8.678;2022-07-03T02:08:03;2.50;;;2.30;;
5412;SDS011;2729;50.056;8.678;2022-07-03T02:10:36;2.40;;;2.20;;
5412;SDS011;2729;50.056;8.678;2022-07-03T02:13:07;2.10;;;2.00;;
5412;SDS011;2729;50.056;8.678;2022-07-03T02:15:41;1.87;;;1.77;;
5412;SDS011;2729;50.056;8.678;2022-07-03T02:18:11;4.53;;;2.33;;
5412;SDS011;2729;50.056;8.678;2022-07-03T02:20:56;4.60;;;1.90;;
5412;SDS011;2729;50.056;8.678;2022-07-03T02:23:36;3.13;;;2.30;;
5412;SDS011;2729;50.056;8.678;2022-07-03T02:26:32;2.40;;;2.20;;
5412;SDS011;2729;50.056;8.678;2022-07-03T02:29:04;2.50;;;2.40;;
5412;SDS011;2729;50.056;8.678;2022-07-03T02:31:42;2.37;;;2.23;;
5412;SDS011;2729;50.056;8.678;2022-07-03T02:34:17;2.50;;;2.30;;
5412;SDS011;2729;50.056;8.678;2022-07-03T02:36:49;7.23;;;2.13;;
5412;SDS011;2729;50.056;8.678;2022-07-03T02:39:32;2.60;;;2.40;;
5412;SDS011;2729;50.056;8.678;2022-07-03T02:42:04;2.63;;;2.53;;
5412;SDS011;2729;50.056;8.678;2022-07-03T02:44:47;2.50;;;2.30;;
5412;SDS011;2729;50.056;8.678;2022-07-03T02:55:20;2.90;;;2.70;;
5412;SDS011;2729;50.056;8.678;2022-07-03T02:58:13;3.13;;;2.37;;
5412;SDS011;2729;50.056;8.678;2022-07-03T03:00:53;2.40;;;2.20;;
5412;SDS011;2729;50.056;8.678;2022-07-03T03:03:28;2.20;;;2.00;;
5412;SDS011;2729;50.056;8.678;2022-07-03T03:05:59;2.30;;;2.10;;
5412;SDS011;2729;50.056;8.678;2022-07-03T03:08:36;2.60;;;2.40;;
5412;SDS011;2729;50.056;8.678;2022-07-03T03:11:09;2.47;;;2.37;;
5412;SDS011;2729;50.056;8.678;2022-07-03T03:13:45;3.00;;;2.70;;
5412;SDS011;2729;50.056;8.678;2022-07-03T03:16:15;3.30;;;2.30;;
5412;SDS011;2729;50.056;8.678;2022-07-03T03:18:41;2.13;;;2.03;;
5412;SDS011;2729;50.056;8.678;2022-07-03T03:21:12;2.60;;;2.40;;
5412;SDS011;2729;50.056;8.678;2022-07-03T03:23:48;4.23;;;2.23;;
5412;SDS011;2729;50.056;8.678;2022-07-03T03:26:17;2.50;;;2.30;;
5412;SDS011;2729;50.056;8.678;2022-07-03T03:28:43;2.50;;;2.30;;
5412;SDS011;2729;50.056;8.678;2022-07-03T03:31:10;3.77;;;2.30;;
5412;SDS011;2729;50.056;8.678;2022-07-03T03:33:40;3.57;;;2.20;;
5412;SDS011;2729;50.056;8.678;2022-07-03T03:36:11;2.50;;;2.40;;
5412;SDS011;2729;50.056;8.678;2022-07-03T03:38:40;3.83;;;2.40;;
5412;SDS011;2729;50.056;8.678;2022-07-03T03:41:06;2.47;;;2.27;;
5412;SDS011;2729;50.056;8.678;2022-07-03T03:43:33;2.77;;;2.57;;
5412;SDS011;2729;50.056;8.678;2022-07-03T03:46:00;2.27;;;2.13;;
5412;SDS011;2729;50.056;8.678;2022-07-03T03:48:26;3.00;;;2.70;;
5412;SDS011;2729;50.056;8.678;2022-07-03T03:50:53;2.23;;;2.13;;
5412;SDS011;2729;50.056;8.678;2022-07-03T03:53:20;3.27;;;2.53;;
5412;SDS011;2729;50.056;8.678;2022-07-03T03:56:09;6.40;;;2.90;;
5412;SDS011;2729;50.056;8.678;2022-07-03T03:58:38;2.37;;;2.27;;
5412;SDS011;2729;50.056;8.678;2022-07-03T04:01:05;2.00;;;1.90;;
5412;SDS011;2729;50.056;8.678;2022-07-03T04:03:33;2.50;;;2.30;;
5412;SDS011;2729;50.056;8.678;2022-07-03T04:06:00;2.47;;;2.27;;
5412;SDS011;2729;50.056;8.678;2022-07-03T04:08:27;3.10;;;2.60;;
5412;SDS011;2729;50.056;8.678;2022-07-03T04:10:53;2.40;;;2.30;;
5412;SDS011;2729;50.056;8.678;2022-07-03T04:13:20;2.07;;;1.97;;
5412;SDS011;2729;50.056;8.678;2022-07-03T04:15:46;5.30;;;2.40;;
5412;SDS011;2729;50.056;8.678;2022-07-03T04:18:13;3.83;;;2.30;;
5412;SDS011;2729;50.056;8.678;2022-07-03T04:20:40;2.50;;;2.30;;
5412;SDS011;2729;50.056;8.678;2022-07-03T04:23:06;2.40;;;2.20;;
5412;SDS011;2729;50.056;8.678;2022-07-03T04:25:32;6.53;;;2.50;;
5412;SDS011;2729;50.056;8.678;2022-07-03T04:27:58;2.93;;;2.50;;
5412;SDS011;2729;50.056;8.678;2022-07-03T04:30:24;2.80;;;2.60;;
5412;SDS011;2729;50.056;8.678;2022-07-03T04:32:50;3.20;;;2.23;;
5412;SDS011;2729;50.056;8.678;2022-07-03T04:35:16;2.60;;;2.40;;
5412;SDS011;2729;50.056;8.678;2022-07-03T04:37:43;2.53;;;2.33;;
5412;SDS011;2729;50.056;8.678;2022-07-03T04:40:09;2.77;;;2.07;;
5412;SDS011;2729;50.056;8.678;2022-07-03T04:42:35;2.30;;;2.10;;
5412;SDS011;2729;50.056;8.678;2022-07-03T04:45:02;4.27;;;2.40;;
5412;SDS011;2729;50.056;8.678;2022-07-03T04:47:28;2.03;;;1.93;;
5412;SDS011;2729;50.056;8.678;2022-07-03T04:49:54;3.93;;;2.30;;
5412;SDS011;2729;50.056;8.678;2022-07-03T04:52:20;2.80;;;2.60;;
5412;SDS011;2729;50.056;8.678;2022-07-03T04:54:46;2.30;;;2.10;;
5412;SDS011;2729;50.056;8.678;2022-07-03T04:57:12;3.27;;;2.50;;
5412;SDS011;2729;50.056;8.678;2022-07-03T04:59:38;3.13;;;2.80;;
5412;SDS011;2729;50.056;8.678;2022-07-03T05:02:04;4.03;;;2.13;;
5412;SDS011;2729;50.056;8.678;2022-07-03T05:04:30;2.23;;;2.03;;
5412;SDS011;2729;50.056;8.678;2022-07-03T05:06:56;3.00;;;2.20;;
5412;SDS011;2729;50.056;8.678;2022-07-03T05:09:22;2.27;;;2.07;;
5412;SDS011;2729;50.056;8.678;2022-07-03T05:11:48;3.37;;;2.47;;
5412;SDS011;2729;50.056;8.678;2022-07-03T05:14:14;2.37;;;2.23;;
5412;SDS011;2729;50.056;8.678;2022-07-03T05:16:40;2.90;;;2.60;;
5412;SDS011;2729;50.056;8.678;2022-07-03T05:19:06;2.10;;;1.90;;
5412;SDS011;2729;50.056;8.678;2022-07-03T05:21:32;3.80;;;2.40;;
5412;SDS011;2729;50.056;8.678;2022-07-03T05:23:58;2.70;;;2.10;;
5412;SDS011;2729;50.056;8.678;2022-07-03T05:26:24;3.30;;;2.43;;
5412;SDS011;2729;50.056;8.678;2022-07-03T05:28:50;2.93;;;2.60;;
5412;SDS011;2729;50.056;8.678;2022-07-03T05:31:16;2.20;;;2.00;;
5412;SDS011;2729;50.056;8.678;2022-07-03T05:33:42;2.30;;;1.90;;
5412;SDS011;2729;50.056;8.678;2022-07-03T05:36:08;2.20;;;2.00;;
5412;SDS011;2729;50.056;8.678;2022-07-03T05:38:34;3.30;;;2.70;;
5412;SDS011;2729;50.056;8.678;2022-07-03T05:41:18;2.37;;;2.17;;
5412;SDS011;2729;50.056;8.678;2022-07-03T05:43:44;2.20;;;2.00;;
5412;SDS011;2729;50.056;8.678;2022-07-03T05:46:10;2.30;;;2.20;;
5412;SDS011;2729;50.056;8.678;2022-07-03T05:48:36;15.20;;;2.50;;
5412;SDS011;2729;50.056;8.678;2022-07-03T05:51:02;2.20;;;2.00;;
5412;SDS011;2729;50.056;8.678;2022-07-03T05:53:29;2.03;;;1.93;;
5412;SDS011;2729;50.056;8.678;2022-07-03T05:55:55;2.90;;;2.30;;
5412;SDS011;2729;50.056;8.678;2022-07-03T05:58:23;2.43;;;2.30;;
5412;SDS011;2729;50.056;8.678;2022-07-03T06:00:49;2.50;;;2.30;;
5412;SDS011;2729;50.056;8.678;2022-07-03T06:03:14;2.40;;;1.77;;
5412;SDS011;2729;50.056;8.678;2022-07-03T06:05:40;2.90;;;2.03;;
5412;SDS011;2729;50.056;8.678;2022-07-03T06:08:06;2.87;;;2.10;;
5412;SDS011;2729;50.056;8.678;2022-07-03T06:10:33;2.63;;;2.20;;
5412;SDS011;2729;50.056;8.678;2022-07-03T06:12:59;2.17;;;2.07;;
5412;SDS011;2729;50.056;8.678;2022-07-03T06:15:25;2.07;;;1.93;;
5412;SDS011;2729;50.056;8.678;2022-07-03T06:17:51;2.20;;;2.10;;
5412;SDS011;2729;50.056;8.678;2022-07-03T06:20:17;1.70;;;1.70;;
5412;SDS011;2729;50.056;8.678;2022-07-03T06:22:43;1.70;;;1.60;;
5412;SDS011;2729;50.056;8.678;2022-07-03T06:25:10;1.70;;;1.60;;
5412;SDS011;2729;50.056;8.678;2022-07-03T06:27:36;2.13;;;1.93;;
5412;SDS011;2729;50.056;8.678;2022-07-03T06:30:03;1.80;;;1.70;;
5412;SDS011;2729;50.056;8.678;2022-07-03T06:32:30;1.73;;;1.63;;
5412;SDS011;2729;50.056;8.678;2022-07-03T06:34:56;1.93;;;1.83;;
5412;SDS011;2729;50.056;8.678;2022-07-03T06:37:22;1.63;;;1.53;;
5412;SDS011;2729;50.056;8.678;2022-07-03T06:39:48;2.03;;;1.93;;
5412;SDS011;2729;50.056;8.678;2022-07-03T06:42:14;1.70;;;1.60;;
5412;SDS011;2729;50.056;8.678;2022-07-03T06:44:40;1.90;;;1.40;;
5412;SDS011;2729;50.056;8.678;2022-07-03T06:47:10;1.50;;;1.40;;
5412;SDS011;2729;50.056;8.678;2022-07-03T06:49:36;2.17;;;2.00;;
5412;SDS011;2729;50.056;8.678;2022-07-03T06:52:02;3.17;;;2.10;;
5412;SDS011;2729;50.056;8.678;2022-07-03T06:54:28;1.53;;;1.43;;
5412;SDS011;2729;50.056;8.678;2022-07-03T06:56:54;2.10;;;1.90;;
5412;SDS011;2729;50.056;8.678;2022-07-03T06:59:20;1.30;;;1.30;;
5412;SDS011;2729;50.056;8.678;2022-07-03T07:01:46;2.03;;;1.93;;
5412;SDS011;2729;50.056;8.678;2022-07-03T07:04:12;2.33;;;1.90;;
5412;SDS011;2729;50.056;8.678;2022-07-03T07:06:38;5.33;;;2.37;;
5412;SDS011;2729;50.056;8.678;2022-07-03T07:09:04;2.00;;;1.80;;
5412;SDS011;2729;50.056;8.678;2022-07-03T07:11:30;1.90;;;1.80;;
5412;SDS011;2729;50.056;8.678;2022-07-03T07:13:56;1.80;;;1.70;;
5412;SDS011;2729;50.056;8.678;2022-07-03T07:16:22;5.70;;;1.87;;
5412;SDS011;2729;50.056;8.678;2022-07-03T07:18:48;2.10;;;1.90;;
5412;SDS011;2729;50.056;8.678;2022-07-03T07:21:14;1.83;;;1.73;;
5412;SDS011;2729;50.056;8.678;2022-07-03T07:23:40;1.70;;;1.60;;
5412;SDS011;2729;50.056;8.678;2022-07-03T07:26:06;2.00;;;1.90;;
5412;SDS011;2729;50.056;8.678;2022-07-03T07:28:33;1.80;;;1.30;;
5412;SDS011;2729;50.056;8.678;2022-07-03T07:31:00;2.07;;;1.97;;
5412;SDS011;2729;50.056;8.678;2022-07-03T07:33:26;1.80;;;1.70;;
5412;SDS011;2729;50.056;8.678;2022-07-03T07:35:52;2.20;;;2.10;;
5412;SDS011;2729;50.056;8.678;2022-07-03T07:38:18;1.93;;;1.83;;
5412;SDS011;2729;50.056;8.678;2022-07-03T07:40:45;2.13;;;2.03;;
5412;SDS011;2729;50.056;8.678;2022-07-03T07:43:10;1.70;;;1.60;;
5412;SDS011;2729;50.056;8.678;2022-07-03T07:45:36;2.17;;;1.97;;
5412;SDS011;2729;50.056;8.678;2022-07-03T07:48:03;2.00;;;1.90;;
5412;SDS011;2729;50.056;8.678;2022-07-03T07:50:29;1.83;;;1.70;;
5412;SDS011;2729;50.056;8.678;2022-07-03T07:52:55;1.90;;;1.80;;
5412;SDS011;2729;50.056;8.678;2022-07-03T07:55:21;1.83;;;1.67;;
5412;SDS011;2729;50.056;8.678;2022-07-03T07:57:47;1.97;;;1.87;;
5412;SDS011;2729;50.056;8.678;2022-07-03T08:00:17;1.83;;;1.63;;
5412;SDS011;2729;50.056;8.678;2022-07-03T08:02:45;2.20;;;1.40;;
5412;SDS011;2729;50.056;8.678;2022-07-03T08:05:30;1.50;;;1.40;;
5412;SDS011;2729;50.056;8.678;2022-07-03T08:08:04;2.20;;;1.80;;
5412;SDS011;2729;50.056;8.678;2022-07-03T08:10:49;1.60;;;1.50;;
5412;SDS011;2729;50.056;8.678;2022-07-03T08:13:17;1.50;;;1.40;;
5412;SDS011;2729;50.056;8.678;2022-07-03T08:15:45;5.47;;;1.40;;
5412;SDS011;2729;50.056;8.678;2022-07-03T08:18:13;1.80;;;1.80;;
5412;SDS011;2729;50.056;8.678;2022-07-03T08:20:39;1.80;;;1.70;;
5412;SDS011;2729;50.056;8.678;2022-07-03T08:23:05;1.80;;;1.70;;
5412;SDS011;2729;50.056;8.678;2022-07-03T08:25:31;1.80;;;1.70;;
5412;SDS011;2729;50.056;8.678;2022-07-03T08:27:58;1.87;;;1.77;;
5412;SDS011;2729;50.056;8.678;2022-07-03T08:30:24;1.60;;;1.50;;
5412;SDS011;2729;50.056;8.678;2022-07-03T08:32:51;1.70;;;1.60;;
5412;SDS011;2729;50.056;8.678;2022-07-03T08:35:19;1.60;;;1.50;;
5412;SDS011;2729;50.056;8.678;2022-07-03T08:37:46;1.60;;;1.50;;
5412;SDS011;2729;50.056;8.678;2022-07-03T08:40:13;2.40;;;1.90;;
5412;SDS011;2729;50.056;8.678;2022-07-03T08:42:45;1.80;;;1.70;;
5412;SDS011;2729;50.056;8.678;2022-07-03T08:45:17;2.00;;;1.90;;
5412;SDS011;2729;50.056;8.678;2022-07-03T08:47:44;1.70;;;1.60;;
5412;SDS011;2729;50.056;8.678;2022-07-03T08:50:12;1.23;;;1.23;;
5412;SDS011;2729;50.056;8.678;2022-07-03T08:52:40;1.67;;;1.57;;
5412;SDS011;2729;50.056;8.678;2022-07-03T08:55:07;1.60;;;1.50;;
5412;SDS011;2729;50.056;8.678;2022-07-03T08:57:35;1.73;;;1.60;;
5412;SDS011;2729;50.056;8.678;2022-07-03T09:00:06;2.63;;;1.70;;
5412;SDS011;2729;50.056;8.678;2022-07-03T09:02:33;1.40;;;1.40;;
5412;SDS011;2729;50.056;8.678;2022-07-03T09:05:00;1.40;;;1.40;;
5412;SDS011;2729;50.056;8.678;2022-07-03T09:07:28;1.40;;;1.40;;
5412;SDS011;2729;50.056;8.678;2022-07-03T09:09:59;1.20;;;1.20;;
5412;SDS011;2729;50.056;8.678;2022-07-03T09:12:25;1.43;;;1.43;;
5412;SDS011;2729;50.056;8.678;2022-07-03T09:14:51;1.53;;;1.43;;
5412;SDS011;2729;50.056;8.678;2022-07-03T09:17:18;2.63;;;1.77;;
5412;SDS011;2729;50.056;8.678;2022-07-03T09:19:45;1.40;;;1.40;;
5412;SDS011;2729;50.056;8.678;2022-07-03T09:22:20;1.57;;;1.47;;
5412;SDS011;2729;50.056;8.678;2022-07-03T09:24:48;3.40;;;1.67;;
5412;SDS011;2729;50.056;8.678;2022-07-03T09:27:22;1.90;;;1.07;;
5412;SDS011;2729;50.056;8.678;2022-07-03T09:29:58;1.60;;;1.50;;
5412;SDS011;2729;50.056;8.678;2022-07-03T09:32:26;1.40;;;1.30;;
5412;SDS011;2729;50.056;8.678;2022-07-03T09:35:12;1.50;;;1.40;;
5412;SDS011;2729;50.056;8.678;2022-07-03T09:37:55;2.63;;;1.47;;
5412;SDS011;2729;50.056;8.678;2022-07-03T09:40:23;2.10;;;1.30;;
5412;SDS011;2729;50.056;8.678;2022-07-03T09:42:57;1.10;;;1.10;;
5412;SDS011;2729;50.056;8.678;2022-07-03T09:45:24;1.63;;;1.53;;
5412;SDS011;2729;50.056;8.678;2022-07-03T09:47:50;1.20;;;1.20;;
5412;SDS011;2729;50.056;8.678;2022-07-03T09:50:16;2.00;;;1.63;;
5412;SDS011;2729;50.056;8.678;2022-07-03T09:52:43;1.30;;;1.30;;
5412;SDS011;2729;50.056;8.678;2022-07-03T09:55:14;9.90;;;3.47;;
5412;SDS011;2729;50.056;8.678;2022-07-03T10:00:16;4.10;;;1.67;;
5412;SDS011;2729;50.056;8.678;2022-07-03T10:05:39;4.40;;;2.50;;
5412;SDS011;2729;50.056;8.678;2022-07-03T10:08:15;7.70;;;2.90;;
5412;SDS011;2729;50.056;8.678;2022-07-03T10:10:45;1.57;;;1.33;;
5412;SDS011;2729;50.056;8.678;2022-07-03T10:13:12;2.90;;;1.90;;
5412;SDS011;2729;50.056;8.678;2022-07-03T10:15:39;2.40;;;1.87;;
5412;SDS011;2729;50.056;8.678;2022-07-03T10:18:07;1.50;;;1.40;;
5412;SDS011;2729;50.056;8.678;2022-07-03T10:20:45;5.17;;;2.27;;
5412;SDS011;2729;50.056;8.678;2022-07-03T10:23:14;8.63;;;1.50;;
5412;SDS011;2729;50.056;8.678;2022-07-03T10:25:44;3.00;;;1.80;;
5412;SDS011;2729;50.056;8.678;2022-07-03T10:28:11;1.20;;;1.20;;
5412;SDS011;2729;50.056;8.678;2022-07-03T10:30:38;1.70;;;1.60;;
5412;SDS011;2729;50.056;8.678;2022-07-03T10:33:04;2.00;;;1.50;;
5412;SDS011;2729;50.056;8.678;2022-07-03T10:35:34;1.10;;;1.10;;
5412;SDS011;2729;50.056;8.678;2022-07-03T10:40:42;1.40;;;1.30;;
5412;SDS011;2729;50.056;8.678;2022-07-03T10:43:37;1.80;;;1.67;;
5412;SDS011;2729;50.056;8.678;2022-07-03T10:46:25;1.90;;;1.70;;
5412;SDS011;2729;50.056;8.678;2022-07-03T10:51:29;2.60;;;1.37;;
5412;SDS011;2729;50.056;8.678;2022-07-03T10:54:16;1.50;;;1.40;;
5412;SDS011;2729;50.056;8.678;2022-07-03T11:02:25;1.20;;;1.10;;
5412;SDS011;2729;50.056;8.678;2022-07-03T11:07:25;3.13;;;1.33;;
5412;SDS011;2729;50.056;8.678;2022-07-03T11:12:54;1.10;;;1.10;;
5412;SDS011;2729;50.056;8.678;2022-07-03T11:20:31;2.30;;;1.27;;
5412;SDS011;2729;50.056;8.678;2022-07-03T11:23:00;3.13;;;1.13;;
5412;SDS011;2729;50.056;8.678;2022-07-03T11:25:38;1.00;;;1.00;;
5412;SDS011;2729;50.056;8.678;2022-07-03T11:38:43;1.20;;;1.00;;
5412;SDS011;2729;50.056;8.678;2022-07-03T11:41:11;1.10;;;1.10;;
5412;SDS011;2729;50.056;8.678;2022-07-03T11:43:45;3.03;;;1.30;;
5412;SDS011;2729;50.056;8.678;2022-07-03T11:46:16;1.00;;;1.00;;
5412;SDS011;2729;50.056;8.678;2022-07-03T11:48:43;1.23;;;1.00;;
5412;SDS011;2729;50.056;8.678;2022-07-03T11:51:09;4.20;;;1.20;;
5412;SDS011;2729;50.056;8.678;2022-07-03T11:53:36;2.40;;;1.30;;
5412;SDS011;2729;50.056;8.678;2022-07-03T11:56:04;1.50;;;1.40;;
5412;SDS011;2729;50.056;8.678;2022-07-03T11:58:47;1.33;;;1.20;;
5412;SDS011;2729;50.056;8.678;2022-07-03T12:03:49;1.10;;;1.03;;
5412;SDS011;2729;50.056;8.678;2022-07-03T12:06:16;0.83;;;0.83;;
5412;SDS011;2729;50.056;8.678;2022-07-03T12:08:42;0.90;;;0.90;;
5412;SDS011;2729;50.056;8.678;2022-07-03T12:11:12;1.43;;;1.33;;
5412;SDS011;2729;50.056;8.678;2022-07-03T12:13:40;1.00;;;1.00;;
5412;SDS011;2729;50.056;8.678;2022-07-03T12:16:08;1.00;;;1.00;;
5412;SDS011;2729;50.056;8.678;2022-07-03T12:18:42;2.90;;;0.90;;
5412;SDS011;2729;50.056;8.678;2022-07-03T12:21:15;1.00;;;1.00;;
5412;SDS011;2729;50.056;8.678;2022-07-03T12:23:44;1.20;;;1.07;;
5412;SDS011;2729;50.056;8.678;2022-07-03T12:26:10;1.07;;;0.93;;
5412;SDS011;2729;50.056;8.678;2022-07-03T12:28:37;1.20;;;1.10;;
5412;SDS011;2729;50.056;8.678;2022-07-03T12:31:04;0.97;;;0.97;;
5412;SDS011;2729;50.056;8.678;2022-07-03T12:33:31;0.90;;;0.90;;
5412;SDS011;2729;50.056;8.678;2022-07-03T12:36:01;3.17;;;1.00;;
5412;SDS011;2729;50.056;8.678;2022-07-03T12:38:37;1.10;;;1.00;;
5412;SDS011;2729;50.056;8.678;2022-07-03T12:41:05;1.10;;;1.00;;
5412;SDS011;2729;50.056;8.678;2022-07-03T12:43:39;1.13;;;1.03;;
5412;SDS011;2729;50.056;8.678;2022-07-03T12:46:16;2.50;;;1.07;;
5412;SDS011;2729;50.056;8.678;2022-07-03T12:48:53;0.93;;;0.93;;
5412;SDS011;2729;50.056;8.678;2022-07-03T12:51:54;1.10;;;1.10;;
5412;SDS011;2729;50.056;8.678;2022-07-03T12:57:04;0.83;;;0.83;;
5412;SDS011;2729;50.056;8.678;2022-07-03T13:02:38;0.80;;;0.80;;
5412;SDS011;2729;50.056;8.678;2022-07-03T13:05:21;1.10;;;1.00;;
5412;SDS011;2729;50.056;8.678;2022-07-03T13:07:53;0.93;;;0.93;;
5412;SDS011;2729;50.056;8.678;2022-07-03T13:10:21;0.70;;;0.70;;
5412;SDS011;2729;50.056;8.678;2022-07-03T13:12:49;1.27;;;0.90;;
5412;SDS011;2729;50.056;8.678;2022-07-03T13:15:20;1.00;;;0.90;;
5412;SDS011;2729;50.056;8.678;2022-07-03T13:17:51;0.80;;;0.80;;
5412;SDS011;2729;50.056;8.678;2022-07-03T13:20:29;1.10;;;1.10;;
5412;SDS011;2729;50.056;8.678;2022-07-03T13:22:59;0.90;;;0.90;;
5412;SDS011;2729;50.056;8.678;2022-07-03T13:25:26;2.73;;;0.90;;
5412;SDS011;2729;50.056;8.678;2022-07-03T13:28:02;0.80;;;0.80;;
5412;SDS011;2729;50.056;8.678;2022-07-03T13:30:39;1.07;;;1.07;;
5412;SDS011;2729;50.056;8.678;2022-07-03T13:33:06;1.27;;;1.10;;
5412;SDS011;2729;50.056;8.678;2022-07-03T13:35:33;1.53;;;0.90;;
5412;SDS011;2729;50.056;8.678;2022-07-03T13:37:59;1.20;;;1.10;;
5412;SDS011;2729;50.056;8.678;2022-07-03T13:40:25;1.00;;;0.90;;
5412;SDS011;2729;50.056;8.678;2022-07-03T13:42:51;1.17;;;1.07;;
5412;SDS011;2729;50.056;8.678;2022-07-03T13:45:17;0.93;;;0.93;;
5412;SDS011;2729;50.056;8.678;2022-07-03T13:47:43;1.00;;;1.00;;
5412;SDS011;2729;50.056;8.678;2022-07-03T13:50:09;1.03;;;1.03;;
5412;SDS011;2729;50.056;8.678;2022-07-03T13:52:36;1.77;;;1.10;;
5412;SDS011;2729;50.056;8.678;2022-07-03T13:55:03;0.93;;;0.93;;
5412;SDS011;2729;50.056;8.678;2022-07-03T13:57:29;0.87;;;0.87;;
5412;SDS011;2729;50.056;8.678;2022-07-03T13:59:57;1.10;;;1.10;;
5412;SDS011;2729;50.056;8.678;2022-07-03T14:02:23;1.10;;;1.00;;
5412;SDS011;2729;50.056;8.678;2022-07-03T14:04:49;1.37;;;1.10;;
5412;SDS011;2729;50.056;8.678;2022-07-03T14:07:14;0.97;;;0.97;;
5412;SDS011;2729;50.056;8.678;2022-07-03T14:09:40;1.17;;;1.17;;
5412;SDS011;2729;50.056;8.678;2022-07-03T14:12:06;0.90;;;0.90;;
5412;SDS011;2729;50.056;8.678;2022-07-03T14:14:32;1.00;;;1.00;;
5412;SDS011;2729;50.056;8.678;2022-07-03T14:16:58;1.20;;;1.20;;
5412;SDS011;2729;50.056;8.678;2022-07-03T14:19:24;0.93;;;0.83;;
5412;SDS011;2729;50.056;8.678;2022-07-03T14:21:51;0.77;;;0.73;;
5412;SDS011;2729;50.056;8.678;2022-07-03T14:24:16;1.13;;;0.80;;
5412;SDS011;2729;50.056;8.678;2022-07-03T14:26:42;1.53;;;1.43;;
5412;SDS011;2729;50.056;8.678;2022-07-03T14:29:27;1.03;;;1.00;;
5412;SDS011;2729;50.056;8.678;2022-07-03T14:32:11;0.77;;;0.77;;
5412;SDS011;2729;50.056;8.678;2022-07-03T14:34:55;0.90;;;0.90;;
5412;SDS011;2729;50.056;8.678;2022-07-03T14:37:22;1.00;;;1.00;;
5412;SDS011;2729;50.056;8.678;2022-07-03T14:39:48;0.90;;;0.90;;
5412;SDS011;2729;50.056;8.678;2022-07-03T14:47:56;1.00;;;1.00;;
5412;SDS011;2729;50.056;8.678;2022-07-03T14:50:22;1.17;;;1.07;;
5412;SDS011;2729;50.056;8.678;2022-07-03T14:52:47;1.43;;;0.90;;
5412;SDS011;2729;50.056;8.678;2022-07-03T14:55:13;1.00;;;1.00;;
5412;SDS011;2729;50.056;8.678;2022-07-03T15:00:17;4.53;;;1.00;;
5412;SDS011;2729;50.056;8.678;2022-07-03T15:02:49;7.90;;;0.80;;
5412;SDS011;2729;50.056;8.678;2022-07-03T15:05:27;1.27;;;0.97;;
5412;SDS011;2729;50.056;8.678;2022-07-03T15:08:03;0.93;;;0.93;;
5412;SDS011;2729;50.056;8.678;2022-07-03T15:10:37;1.17;;;0.97;;
5412;SDS011;2729;50.056;8.678;2022-07-03T15:13:04;0.90;;;0.90;;
5412;SDS011;2729;50.056;8.678;2022-07-03T15:15:31;1.87;;;1.30;;
5412;SDS011;2729;50.056;8.678;2022-07-03T15:17:59;1.00;;;1.00;;
5412;SDS011;2729;50.056;8.678;2022-07-03T15:20:33;1.20;;;0.93;;
5412;SDS011;2729;50.056;8.678;2022-07-03T15:23:00;1.63;;;1.10;;
5412;SDS011;2729;50.056;8.678;2022-07-03T15:25:29;0.80;;;0.80;;
5412;SDS011;2729;50.056;8.678;2022-07-03T15:27:56;2.20;;;1.43;;
5412;SDS011;2729;50.056;8.678;2022-07-03T15:30:22;0.90;;;0.90;;
5412;SDS011;2729;50.056;8.678;2022-07-03T15:32:50;0.87;;;0.87;;
5412;SDS011;2729;50.056;8.678;2022-07-03T15:35:17;1.13;;;1.07;;
5412;SDS011;2729;50.056;8.678;2022-07-03T15:43:24;1.17;;;0.90;;
5412;SDS011;2729;50.056;8.678;2022-07-03T15:51:58;2.70;;;0.90;;
5412;SDS011;2729;50.056;8.678;2022-07-03T15:54:51;1.00;;;0.97;;
5412;SDS011;2729;50.056;8.678;2022-07-03T15:57:46;1.00;;;0.90;;
5412;SDS011;2729;50.056;8.678;2022-07-03T16:00:16;1.00;;;1.00;;
5412;SDS011;2729;50.056;8.678;2022-07-03T16:05:27;0.90;;;0.90;;
5412;SDS011;2729;50.056;8.678;2022-07-03T16:07:58;1.57;;;1.00;;
5412;SDS011;2729;50.056;8.678;2022-07-03T16:10:25;0.90;;;0.90;;
5412;SDS011;2729;50.056;8.678;2022-07-03T16:12:52;1.17;;;0.90;;
5412;SDS011;2729;50.056;8.678;2022-07-03T16:15:19;1.20;;;1.20;;
5412;SDS011;2729;50.056;8.678;2022-07-03T16:17:46;4.70;;;1.03;;
5412;SDS011;2729;50.056;8.678;2022-07-03T16:20:15;0.93;;;0.93;;
5412;SDS011;2729;50.056;8.678;2022-07-03T16:22:41;0.83;;;0.83;;
5412;SDS011;2729;50.056;8.678;2022-07-03T16:25:08;0.90;;;0.90;;
5412;SDS011;2729;50.056;8.678;2022-07-03T16:27:35;1.87;;;0.87;;
5412;SDS011;2729;50.056;8.678;2022-07-03T16:30:01;1.00;;;1.00;;
5412;SDS011;2729;50.056;8.678;2022-07-03T16:32:35;0.83;;;0.80;;
5412;SDS011;2729;50.056;8.678;2022-07-03T16:35:04;1.00;;;1.00;;
5412;SDS011;2729;50.056;8.678;2022-07-03T16:37:37;1.53;;;0.80;;
5412;SDS011;2729;50.056;8.678;2022-07-03T16:40:08;0.70;;;0.70;;
5412;SDS011;2729;50.056;8.678;2022-07-03T16:42:35;0.90;;;0.90;;
5412;SDS011;2729;50.056;8.678;2022-07-03T16:45:06;0.87;;;0.80;;
5412;SDS011;2729;50.056;8.678;2022-07-03T16:47:43;0.93;;;0.93;;
5412;SDS011;2729;50.056;8.678;2022-07-03T16:50:13;3.03;;;1.27;;
5412;SDS011;2729;50.056;8.678;2022-07-03T16:52:47;2.53;;;0.80;;